sensor_id;sensor_type;location;lat;lon;timestamp;pressure;altitude;pressure_sealevel;temperature;humidity
28701;BME280;15877;52.344;16.790;2023-08-21T00:00:40;101235.12;;;25.16;71.83
28701;BME280;15877;52.344;16.790;2023-08-21T00:03:32;101237.11;;;25.15;71.05
28701;BME280;15877;52.344;16.790;2023-08-21T00:06:05;101248.20;;;25.23;70.88
28701;BME280;15877;52.344;16.790;2023-08-21T00:08:37;101248.30;;;25.22;70.46
28701;BME280;15877;52.344;16.790;2023-08-21T00:11:09;101247.58;;;25.22;70.37
28701;BME280;15877;52.344;16.790;2023-08-21T00:13:41;101246.94;;;25.21;71.11
28701;BME280;15877;52.344;16.790;2023-08-21T00:16:15;101244.69;;;25.20;70.49
28701;BME280;15877;52.344;16.790;2023-08-21T00:18:48;101237.13;;;25.17;69.96
28701;BME280;15877;52.344;16.790;2023-08-21T00:21:20;101233.30;;;25.14;69.47
28701;BME280;15877;52.344;16.790;2023-08-21T00:23:52;101226.41;;;25.14;69.70
28701;BME280;15877;52.344;16.790;2023-08-21T00:26:25;101236.54;;;25.12;69.72
28701;BME280;15877;52.344;16.790;2023-08-21T00:28:58;101234.21;;;25.04;71.00
28701;BME280;15877;52.344;16.790;2023-08-21T00:31:31;101244.30;;;25.13;71.39
28701;BME280;15877;52.344;16.790;2023-08-21T00:34:03;101253.31;;;25.13;71.42
28701;BME280;15877;52.344;16.790;2023-08-21T00:36:35;101252.99;;;25.13;71.12
28701;BME280;15877;52.344;16.790;2023-08-21T00:39:07;101247.45;;;25.12;71.39
28701;BME280;15877;52.344;16.790;2023-08-21T00:41:40;101247.28;;;25.11;70.52
28701;BME280;15877;52.344;16.790;2023-08-21T00:44:13;101242.61;;;25.06;69.29
28701;BME280;15877;52.344;16.790;2023-08-21T00:46:45;101242.90;;;25.01;68.42
28701;BME280;15877;52.344;16.790;2023-08-21T00:49:19;101233.36;;;24.92;68.17
28701;BME280;15877;52.344;16.790;2023-08-21T00:51:52;101246.17;;;24.97;68.21
28701;BME280;15877;52.344;16.790;2023-08-21T00:54:25;101231.75;;;24.88;68.24
28701;BME280;15877;52.344;16.790;2023-08-21T00:56:58;101248.38;;;24.93;68.62
28701;BME280;15877;52.344;16.790;2023-08-21T00:59:31;101246.80;;;24.91;68.40
28701;BME280;15877;52.344;16.790;2023-08-21T01:02:03;101249.33;;;24.91;68.99
28701;BME280;15877;52.344;16.790;2023-08-21T01:04:36;101246.90;;;24.87;70.57
28701;BME280;15877;52.344;16.790;2023-08-21T01:07:08;101244.52;;;24.87;71.79
28701;BME280;15877;52.344;16.790;2023-08-21T01:09:49;101250.10;;;24.89;71.07
28701;BME280;15877;52.344;16.790;2023-08-21T01:12:29;101254.98;;;24.88;72.04
28701;BME280;15877;52.344;16.790;2023-08-21T01:15:06;101246.09;;;24.87;71.64
28701;BME280;15877;52.344;16.790;2023-08-21T01:17:39;101252.97;;;24.88;70.68
28701;BME280;15877;52.344;16.790;2023-08-21T01:20:12;101247.24;;;24.76;70.46
28701;BME280;15877;52.344;16.790;2023-08-21T01:22:47;101252.00;;;24.77;70.07
28701;BME280;15877;52.344;16.790;2023-08-21T01:25:21;101237.72;;;24.80;69.92
28701;BME280;15877;52.344;16.790;2023-08-21T01:27:55;101245.93;;;24.80;69.51
28701;BME280;15877;52.344;16.790;2023-08-21T01:30:30;101246.44;;;24.79;69.65
28701;BME280;15877;52.344;16.790;2023-08-21T01:33:08;101235.96;;;24.76;69.61
28701;BME280;15877;52.344;16.790;2023-08-21T01:35:43;101247.69;;;24.75;70.15
28701;BME280;15877;52.344;16.790;2023-08-21T01:38:15;101251.79;;;24.75;70.82
28701;BME280;15877;52.344;16.790;2023-08-21T01:40:49;101247.48;;;24.76;71.56
28701;BME280;15877;52.344;16.790;2023-08-21T01:43:22;101244.34;;;24.75;71.28
28701;BME280;15877;52.344;16.790;2023-08-21T01:45:54;101240.77;;;24.75;71.35
28701;BME280;15877;52.344;16.790;2023-08-21T01:48:28;101237.92;;;24.72;70.42
28701;BME280;15877;52.344;16.790;2023-08-21T01:51:03;101236.98;;;24.70;70.12
28701;BME280;15877;52.344;16.790;2023-08-21T01:53:35;101240.81;;;24.70;70.33
28701;BME280;15877;52.344;16.790;2023-08-21T01:56:08;101246.91;;;24.68;69.96
28701;BME280;15877;52.344;16.790;2023-08-21T01:58:40;101241.56;;;24.68;70.69
28701;BME280;15877;52.344;16.790;2023-08-21T02:01:13;101242.16;;;24.66;71.62
28701;BME280;15877;52.344;16.790;2023-08-21T02:03:45;101234.00;;;24.64;70.71
28701;BME280;15877;52.344;16.790;2023-08-21T02:06:17;101235.02;;;24.63;69.68
28701;BME280;15877;52.344;16.790;2023-08-21T02:08:50;101244.14;;;24.61;68.68
28701;BME280;15877;52.344;16.790;2023-08-21T02:11:23;101244.40;;;24.57;67.34
28701;BME280;15877;52.344;16.790;2023-08-21T02:13:55;101247.70;;;24.54;66.63
28701;BME280;15877;52.344;16.790;2023-08-21T02:16:28;101240.00;;;24.44;67.40
28701;BME280;15877;52.344;16.790;2023-08-21T02:19:00;101257.42;;;24.52;67.55
28701;BME280;15877;52.344;16.790;2023-08-21T02:21:34;101261.11;;;24.54;66.56
28701;BME280;15877;52.344;16.790;2023-08-21T02:24:07;101266.31;;;24.54;67.36
28701;BME280;15877;52.344;16.790;2023-08-21T02:26:40;101255.12;;;24.46;68.54
28701;BME280;15877;52.344;16.790;2023-08-21T02:29:13;101270.26;;;24.55;68.14
28701;BME280;15877;52.344;16.790;2023-08-21T02:31:46;101268.17;;;24.54;69.39
28701;BME280;15877;52.344;16.790;2023-08-21T02:34:18;101278.52;;;24.52;70.27
28701;BME280;15877;52.344;16.790;2023-08-21T02:36:51;101279.58;;;24.52;70.15
28701;BME280;15877;52.344;16.790;2023-08-21T02:39:23;101279.50;;;24.52;69.71
28701;BME280;15877;52.344;16.790;2023-08-21T02:41:55;101280.39;;;24.51;70.22
28701;BME280;15877;52.344;16.790;2023-08-21T02:44:28;101280.16;;;24.51;70.51
28701;BME280;15877;52.344;16.790;2023-08-21T02:47:00;101280.84;;;24.50;70.24
28701;BME280;15877;52.344;16.790;2023-08-21T02:49:33;101277.70;;;24.49;70.10
28701;BME280;15877;52.344;16.790;2023-08-21T02:52:06;101278.37;;;24.48;69.41
28701;BME280;15877;52.344;16.790;2023-08-21T02:54:38;101272.96;;;24.47;70.26
28701;BME280;15877;52.344;16.790;2023-08-21T02:57:12;101270.88;;;24.45;70.61
28701;BME280;15877;52.344;16.790;2023-08-21T02:59:44;101270.84;;;24.43;70.64
28701;BME280;15877;52.344;16.790;2023-08-21T03:02:19;101275.00;;;24.42;70.61
28701;BME280;15877;52.344;16.790;2023-08-21T03:04:51;101276.56;;;24.41;70.43
28701;BME280;15877;52.344;16.790;2023-08-21T03:07:24;101269.00;;;24.39;71.00
28701;BME280;15877;52.344;16.790;2023-08-21T03:09:57;101269.46;;;24.36;71.02
28701;BME280;15877;52.344;16.790;2023-08-21T03:12:30;101264.73;;;24.33;70.81
28701;BME280;15877;52.344;16.790;2023-08-21T03:15:03;101267.36;;;24.32;70.82
28701;BME280;15877;52.344;16.790;2023-08-21T03:17:36;101267.98;;;24.29;70.88
28701;BME280;15877;52.344;16.790;2023-08-21T03:20:10;101266.30;;;24.24;71.12
28701;BME280;15877;52.344;16.790;2023-08-21T03:22:43;101271.41;;;24.21;71.07
28701;BME280;15877;52.344;16.790;2023-08-21T03:25:16;101269.05;;;24.16;70.65
28701;BME280;15877;52.344;16.790;2023-08-21T03:27:49;101272.96;;;24.12;70.70
28701;BME280;15877;52.344;16.790;2023-08-21T03:30:22;101272.06;;;24.08;70.75
28701;BME280;15877;52.344;16.790;2023-08-21T03:32:54;101274.70;;;24.05;70.72
28701;BME280;15877;52.344;16.790;2023-08-21T03:35:27;101277.18;;;24.03;70.80
28701;BME280;15877;52.344;16.790;2023-08-21T03:38:00;101277.91;;;23.99;70.37
28701;BME280;15877;52.344;16.790;2023-08-21T03:40:33;101282.99;;;23.95;70.03
28701;BME280;15877;52.344;16.790;2023-08-21T03:43:06;101280.17;;;23.90;70.09
28701;BME280;15877;52.344;16.790;2023-08-21T03:45:38;101277.31;;;23.87;70.38
28701;BME280;15877;52.344;16.790;2023-08-21T03:48:10;101281.46;;;23.82;70.77
28701;BME280;15877;52.344;16.790;2023-08-21T03:50:44;101281.36;;;23.79;71.01
28701;BME280;15877;52.344;16.790;2023-08-21T03:53:16;101279.50;;;23.74;71.28
28701;BME280;15877;52.344;16.790;2023-08-21T03:55:49;101275.89;;;23.72;71.36
28701;BME280;15877;52.344;16.790;2023-08-21T03:58:21;101271.60;;;23.72;71.37
28701;BME280;15877;52.344;16.790;2023-08-21T04:00:53;101271.25;;;23.69;71.45
28701;BME280;15877;52.344;16.790;2023-08-21T04:03:27;101271.54;;;23.66;71.41
28701;BME280;15877;52.344;16.790;2023-08-21T04:06:01;101255.01;;;23.58;71.93
28701;BME280;15877;52.344;16.790;2023-08-21T04:08:33;101266.42;;;23.62;71.95
28701;BME280;15877;52.344;16.790;2023-08-21T04:11:07;101265.82;;;23.60;71.60
28701;BME280;15877;52.344;16.790;2023-08-21T04:13:39;101264.25;;;23.57;71.64
28701;BME280;15877;52.344;16.790;2023-08-21T04:16:12;101263.65;;;23.55;72.24
28701;BME280;15877;52.344;16.790;2023-08-21T04:18:45;101261.96;;;23.54;72.50
28701;BME280;15877;52.344;16.790;2023-08-21T04:21:17;101265.39;;;23.52;72.00
28701;BME280;15877;52.344;16.790;2023-08-21T04:23:49;101273.67;;;23.51;71.94
28701;BME280;15877;52.344;16.790;2023-08-21T04:26:22;101274.92;;;23.50;71.94
28701;BME280;15877;52.344;16.790;2023-08-21T04:28:54;101273.09;;;23.48;72.30
28701;BME280;15877;52.344;16.790;2023-08-21T04:31:27;101270.11;;;23.48;72.89
28701;BME280;15877;52.344;16.790;2023-08-21T04:34:00;101272.77;;;23.47;73.22
28701;BME280;15877;52.344;16.790;2023-08-21T04:36:34;101276.66;;;23.47;73.25
28701;BME280;15877;52.344;16.790;2023-08-21T04:39:07;101274.00;;;23.47;73.38
28701;BME280;15877;52.344;16.790;2023-08-21T04:41:41;101268.80;;;23.48;73.58
28701;BME280;15877;52.344;16.790;2023-08-21T04:44:13;101263.91;;;23.49;73.50
28701;BME280;15877;52.344;16.790;2023-08-21T04:46:49;101269.85;;;23.48;73.66
28701;BME280;15877;52.344;16.790;2023-08-21T04:49:23;101273.58;;;23.48;73.82
28701;BME280;15877;52.344;16.790;2023-08-21T04:51:55;101278.17;;;23.49;74.06
28701;BME280;15877;52.344;16.790;2023-08-21T04:54:27;101279.02;;;23.48;74.45
28701;BME280;15877;52.344;16.790;2023-08-21T04:57:00;101269.52;;;23.39;74.40
28701;BME280;15877;52.344;16.790;2023-08-21T04:59:33;101285.43;;;23.47;74.62
28701;BME280;15877;52.344;16.790;2023-08-21T05:02:05;101283.56;;;23.46;74.99
28701;BME280;15877;52.344;16.790;2023-08-21T05:04:38;101287.02;;;23.48;75.45
28701;BME280;15877;52.344;16.790;2023-08-21T05:07:12;101284.89;;;23.50;75.59
28701;BME280;15877;52.344;16.790;2023-08-21T05:09:44;101291.52;;;23.50;76.16
28701;BME280;15877;52.344;16.790;2023-08-21T05:12:16;101299.32;;;23.54;76.12
28701;BME280;15877;52.344;16.790;2023-08-21T05:14:49;101300.85;;;23.55;76.41
28701;BME280;15877;52.344;16.790;2023-08-21T05:17:21;101301.00;;;23.51;77.03
28701;BME280;15877;52.344;16.790;2023-08-21T05:19:54;101306.53;;;23.54;77.07
28701;BME280;15877;52.344;16.790;2023-08-21T05:22:27;101308.04;;;23.57;77.14
28701;BME280;15877;52.344;16.790;2023-08-21T05:24:59;101307.48;;;23.61;77.03
28701;BME280;15877;52.344;16.790;2023-08-21T05:27:32;101289.33;;;23.51;77.33
28701;BME280;15877;52.344;16.790;2023-08-21T05:30:07;101310.12;;;23.66;77.63
28701;BME280;15877;52.344;16.790;2023-08-21T05:32:41;101307.67;;;23.73;77.14
28701;BME280;15877;52.344;16.790;2023-08-21T05:35:14;101305.17;;;23.76;77.44
28701;BME280;15877;52.344;16.790;2023-08-21T05:37:47;101311.02;;;23.80;77.18
28701;BME280;15877;52.344;16.790;2023-08-21T05:40:22;101308.11;;;23.83;77.34
28701;BME280;15877;52.344;16.790;2023-08-21T05:42:54;101306.20;;;23.86;77.38
28701;BME280;15877;52.344;16.790;2023-08-21T05:45:27;101304.91;;;23.90;76.47
28701;BME280;15877;52.344;16.790;2023-08-21T05:47:59;101310.21;;;23.92;76.17
28701;BME280;15877;52.344;16.790;2023-08-21T05:50:32;101312.80;;;23.92;74.83
28701;BME280;15877;52.344;16.790;2023-08-21T05:53:04;101312.13;;;23.94;70.43
28701;BME280;15877;52.344;16.790;2023-08-21T05:55:37;101309.34;;;23.95;68.16
28701;BME280;15877;52.344;16.790;2023-08-21T05:58:10;101310.83;;;23.94;70.35
28701;BME280;15877;52.344;16.790;2023-08-21T06:00:42;101318.02;;;23.92;69.67
28701;BME280;15877;52.344;16.790;2023-08-21T06:03:15;101317.10;;;23.92;68.76
28701;BME280;15877;52.344;16.790;2023-08-21T06:06:03;101315.19;;;23.95;69.03
28701;BME280;15877;52.344;16.790;2023-08-21T06:08:36;101313.04;;;23.93;68.31
28701;BME280;15877;52.344;16.790;2023-08-21T06:11:08;101312.83;;;24.01;67.90
28701;BME280;15877;52.344;16.790;2023-08-21T06:13:40;101315.83;;;24.01;68.61
28701;BME280;15877;52.344;16.790;2023-08-21T06:16:13;101314.95;;;24.01;68.62
28701;BME280;15877;52.344;16.790;2023-08-21T06:18:47;101318.54;;;24.04;68.81
28701;BME280;15877;52.344;16.790;2023-08-21T06:21:19;101315.47;;;24.07;69.71
28701;BME280;15877;52.344;16.790;2023-08-21T06:23:52;101311.20;;;24.10;68.22
28701;BME280;15877;52.344;16.790;2023-08-21T06:26:24;101309.74;;;24.10;65.10
28701;BME280;15877;52.344;16.790;2023-08-21T06:28:56;101296.02;;;24.03;65.86
28701;BME280;15877;52.344;16.790;2023-08-21T06:31:28;101296.15;;;24.08;66.25
28701;BME280;15877;52.344;16.790;2023-08-21T06:34:01;101314.33;;;24.21;67.09
28701;BME280;15877;52.344;16.790;2023-08-21T06:36:33;101310.27;;;24.24;67.78
28701;BME280;15877;52.344;16.790;2023-08-21T06:39:06;101319.31;;;24.28;67.28
28701;BME280;15877;52.344;16.790;2023-08-21T06:41:39;101318.68;;;24.30;65.70
28701;BME280;15877;52.344;16.790;2023-08-21T06:44:16;101326.67;;;24.36;64.82
28701;BME280;15877;52.344;16.790;2023-08-21T06:46:48;101327.27;;;24.39;66.00
28701;BME280;15877;52.344;16.790;2023-08-21T06:49:21;101327.35;;;24.42;64.63
28701;BME280;15877;52.344;16.790;2023-08-21T06:51:53;101327.97;;;24.48;65.05
28701;BME280;15877;52.344;16.790;2023-08-21T06:54:25;101319.91;;;24.53;65.31
28701;BME280;15877;52.344;16.790;2023-08-21T06:56:58;101296.55;;;24.49;63.54
28701;BME280;15877;52.344;16.790;2023-08-21T06:59:30;101304.57;;;24.60;63.11
28701;BME280;15877;52.344;16.790;2023-08-21T07:02:06;101302.29;;;24.64;62.82
28701;BME280;15877;52.344;16.790;2023-08-21T07:04:39;101306.40;;;24.70;63.53
28701;BME280;15877;52.344;16.790;2023-08-21T07:07:11;101308.92;;;24.74;63.30
28701;BME280;15877;52.344;16.790;2023-08-21T07:09:44;101306.35;;;24.73;64.54
28701;BME280;15877;52.344;16.790;2023-08-21T07:12:16;101310.23;;;24.74;64.61
28701;BME280;15877;52.344;16.790;2023-08-21T07:14:48;101310.16;;;24.80;64.90
28701;BME280;15877;52.344;16.790;2023-08-21T07:17:21;101317.11;;;24.81;63.44
28701;BME280;15877;52.344;16.790;2023-08-21T07:19:53;101312.91;;;24.87;62.53
28701;BME280;15877;52.344;16.790;2023-08-21T07:22:26;101318.41;;;24.93;62.39
28701;BME280;15877;52.344;16.790;2023-08-21T07:24:59;101322.38;;;24.96;61.72
28701;BME280;15877;52.344;16.790;2023-08-21T07:27:35;101325.48;;;24.99;61.44
28701;BME280;15877;52.344;16.790;2023-08-21T07:30:10;101316.98;;;25.04;61.93
28701;BME280;15877;52.344;16.790;2023-08-21T07:32:45;101330.61;;;25.23;60.20
28701;BME280;15877;52.344;16.790;2023-08-21T07:35:18;101333.37;;;25.26;59.73
28701;BME280;15877;52.344;16.790;2023-08-21T07:37:51;101331.89;;;25.31;60.37
28701;BME280;15877;52.344;16.790;2023-08-21T07:40:24;101333.71;;;25.29;60.19
28701;BME280;15877;52.344;16.790;2023-08-21T07:42:56;101325.81;;;25.37;61.27
28701;BME280;15877;52.344;16.790;2023-08-21T07:45:29;101327.90;;;25.45;61.03
28701;BME280;15877;52.344;16.790;2023-08-21T07:48:01;101328.36;;;25.46;61.14
28701;BME280;15877;52.344;16.790;2023-08-21T07:50:52;101322.38;;;25.48;62.03
28701;BME280;15877;52.344;16.790;2023-08-21T07:53:25;101324.13;;;25.53;62.52
28701;BME280;15877;52.344;16.790;2023-08-21T07:55:57;101327.51;;;25.54;61.38
28701;BME280;15877;52.344;16.790;2023-08-21T07:58:29;101329.05;;;25.60;62.27
28701;BME280;15877;52.344;16.790;2023-08-21T08:01:02;101333.36;;;25.60;59.10
28701;BME280;15877;52.344;16.790;2023-08-21T08:03:35;101336.74;;;25.71;59.78
28701;BME280;15877;52.344;16.790;2023-08-21T08:06:08;101335.92;;;25.80;59.53
28701;BME280;15877;52.344;16.790;2023-08-21T08:08:40;101337.50;;;25.82;58.51
28701;BME280;15877;52.344;16.790;2023-08-21T08:11:13;101339.04;;;25.83;59.81
28701;BME280;15877;52.344;16.790;2023-08-21T08:13:45;101334.91;;;25.67;61.52
28701;BME280;15877;52.344;16.790;2023-08-21T08:16:17;101334.84;;;25.78;61.02
28701;BME280;15877;52.344;16.790;2023-08-21T08:18:50;101333.60;;;25.92;60.95
28701;BME280;15877;52.344;16.790;2023-08-21T08:21:22;101332.30;;;25.97;63.04
28701;BME280;15877;52.344;16.790;2023-08-21T08:23:54;101321.04;;;26.03;64.46
28701;BME280;15877;52.344;16.790;2023-08-21T08:26:26;101312.90;;;26.09;63.16
28701;BME280;15877;52.344;16.790;2023-08-21T08:28:58;101318.08;;;26.21;62.62
28701;BME280;15877;52.344;16.790;2023-08-21T08:31:31;101333.48;;;26.21;62.29
28701;BME280;15877;52.344;16.790;2023-08-21T08:34:03;101340.20;;;26.22;62.04
28701;BME280;15877;52.344;16.790;2023-08-21T08:36:36;101327.56;;;26.16;61.85
28701;BME280;15877;52.344;16.790;2023-08-21T08:39:08;101340.82;;;26.28;60.70
28701;BME280;15877;52.344;16.790;2023-08-21T08:41:48;101336.02;;;26.34;59.76
28701;BME280;15877;52.344;16.790;2023-08-21T08:44:25;101340.21;;;26.38;60.32
28701;BME280;15877;52.344;16.790;2023-08-21T08:46:59;101339.27;;;26.42;60.29
28701;BME280;15877;52.344;16.790;2023-08-21T08:49:31;101336.15;;;26.44;58.82
28701;BME280;15877;52.344;16.790;2023-08-21T08:52:05;101340.02;;;26.39;59.14
28701;BME280;15877;52.344;16.790;2023-08-21T08:54:39;101341.69;;;26.43;58.36
28701;BME280;15877;52.344;16.790;2023-08-21T08:57:11;101334.29;;;26.49;58.37
28701;BME280;15877;52.344;16.790;2023-08-21T08:59:43;101324.85;;;26.52;57.31
28701;BME280;15877;52.344;16.790;2023-08-21T09:02:16;101324.86;;;26.49;56.57
28701;BME280;15877;52.344;16.790;2023-08-21T09:04:48;101327.23;;;26.62;57.17
28701;BME280;15877;52.344;16.790;2023-08-21T09:07:21;101327.39;;;26.76;56.90
28701;BME280;15877;52.344;16.790;2023-08-21T09:09:54;101325.30;;;26.76;56.59
28701;BME280;15877;52.344;16.790;2023-08-21T09:12:26;101319.43;;;26.70;56.72
28701;BME280;15877;52.344;16.790;2023-08-21T09:14:59;101319.39;;;26.79;56.95
28701;BME280;15877;52.344;16.790;2023-08-21T09:17:34;101314.67;;;26.79;56.32
28701;BME280;15877;52.344;16.790;2023-08-21T09:20:08;101313.70;;;26.79;56.11
28701;BME280;15877;52.344;16.790;2023-08-21T09:22:40;101312.29;;;26.88;54.96
28701;BME280;15877;52.344;16.790;2023-08-21T09:25:12;101313.07;;;27.02;56.32
28701;BME280;15877;52.344;16.790;2023-08-21T09:27:45;101302.81;;;26.97;57.50
28701;BME280;15877;52.344;16.790;2023-08-21T09:30:17;101318.66;;;27.13;55.70
28701;BME280;15877;52.344;16.790;2023-08-21T09:32:57;101316.47;;;27.22;55.70
28701;BME280;15877;52.344;16.790;2023-08-21T09:35:33;101307.80;;;27.18;54.77
28701;BME280;15877;52.344;16.790;2023-08-21T09:38:07;101317.38;;;27.38;54.92
28701;BME280;15877;52.344;16.790;2023-08-21T09:40:42;101316.39;;;27.50;55.84
28701;BME280;15877;52.344;16.790;2023-08-21T09:43:14;101312.39;;;27.48;55.99
28701;BME280;15877;52.344;16.790;2023-08-21T09:45:49;101305.45;;;27.45;54.98
28701;BME280;15877;52.344;16.790;2023-08-21T09:48:23;101309.86;;;27.34;54.81
28701;BME280;15877;52.344;16.790;2023-08-21T09:50:57;101303.27;;;27.35;55.85
28701;BME280;15877;52.344;16.790;2023-08-21T09:53:31;101301.44;;;27.51;54.50
28701;BME280;15877;52.344;16.790;2023-08-21T09:56:04;101296.11;;;27.61;53.95
28701;BME280;15877;52.344;16.790;2023-08-21T09:58:38;101299.66;;;27.48;55.53
28701;BME280;15877;52.344;16.790;2023-08-21T10:01:10;101299.26;;;27.62;53.99
28701;BME280;15877;52.344;16.790;2023-08-21T10:03:43;101299.98;;;27.74;53.85
28701;BME280;15877;52.344;16.790;2023-08-21T10:06:19;101294.02;;;27.84;54.86
28701;BME280;15877;52.344;16.790;2023-08-21T10:08:55;101297.02;;;27.94;54.44
28701;BME280;15877;52.344;16.790;2023-08-21T10:11:29;101294.79;;;27.97;53.57
28701;BME280;15877;52.344;16.790;2023-08-21T10:14:01;101290.70;;;27.90;53.37
28701;BME280;15877;52.344;16.790;2023-08-21T10:16:34;101291.74;;;28.11;54.28
28701;BME280;15877;52.344;16.790;2023-08-21T10:19:06;101290.64;;;28.08;53.50
28701;BME280;15877;52.344;16.790;2023-08-21T10:21:39;101288.30;;;28.24;52.30
28701;BME280;15877;52.344;16.790;2023-08-21T10:24:11;101288.08;;;28.28;51.97
28701;BME280;15877;52.344;16.790;2023-08-21T10:26:44;101289.05;;;28.28;53.07
28701;BME280;15877;52.344;16.790;2023-08-21T10:29:17;101292.59;;;28.34;53.26
28701;BME280;15877;52.344;16.790;2023-08-21T10:31:59;101283.45;;;28.38;52.74
28701;BME280;15877;52.344;16.790;2023-08-21T10:34:35;101292.27;;;28.56;51.66
28701;BME280;15877;52.344;16.790;2023-08-21T10:37:10;101295.38;;;28.58;51.70
28701;BME280;15877;52.344;16.790;2023-08-21T10:39:56;101294.22;;;28.34;51.77
28701;BME280;15877;52.344;16.790;2023-08-21T10:42:41;101295.44;;;28.23;52.59
28701;BME280;15877;52.344;16.790;2023-08-21T10:45:14;101297.13;;;28.24;52.48
28701;BME280;15877;52.344;16.790;2023-08-21T10:47:46;101293.23;;;28.40;53.47
28701;BME280;15877;52.344;16.790;2023-08-21T10:50:21;101292.27;;;28.62;52.97
28701;BME280;15877;52.344;16.790;2023-08-21T10:52:54;101292.92;;;28.66;50.99
28701;BME280;15877;52.344;16.790;2023-08-21T10:55:27;101291.92;;;28.77;51.57
28701;BME280;15877;52.344;16.790;2023-08-21T10:58:01;101284.16;;;28.93;51.05
28701;BME280;15877;52.344;16.790;2023-08-21T11:00:34;101285.96;;;29.02;51.20
28701;BME280;15877;52.344;16.790;2023-08-21T11:03:06;101291.95;;;28.93;51.16
28701;BME280;15877;52.344;16.790;2023-08-21T11:05:39;101289.75;;;28.83;51.42
28701;BME280;15877;52.344;16.790;2023-08-21T11:08:11;101288.37;;;29.05;51.84
28701;BME280;15877;52.344;16.790;2023-08-21T11:10:47;101285.99;;;29.21;50.73
28701;BME280;15877;52.344;16.790;2023-08-21T11:13:22;101280.04;;;29.27;49.88
28701;BME280;15877;52.344;16.790;2023-08-21T11:16:02;101284.79;;;29.44;51.33
28701;BME280;15877;52.344;16.790;2023-08-21T11:18:36;101277.41;;;29.41;50.11
28701;BME280;15877;52.344;16.790;2023-08-21T11:21:10;101263.31;;;29.22;52.11
28701;BME280;15877;52.344;16.790;2023-08-21T11:23:43;101276.87;;;29.21;52.57
28701;BME280;15877;52.344;16.790;2023-08-21T11:26:15;101274.38;;;29.11;52.59
28701;BME280;15877;52.344;16.790;2023-08-21T11:28:53;101271.71;;;29.02;52.40
28701;BME280;15877;52.344;16.790;2023-08-21T11:31:26;101273.73;;;28.99;52.08
28701;BME280;15877;52.344;16.790;2023-08-21T11:33:59;101268.44;;;28.87;51.58
28701;BME280;15877;52.344;16.790;2023-08-21T11:36:48;101266.63;;;28.73;52.00
28701;BME280;15877;52.344;16.790;2023-08-21T11:39:20;101268.41;;;28.77;53.18
28701;BME280;15877;52.344;16.790;2023-08-21T11:41:57;101268.02;;;28.77;52.12
28701;BME280;15877;52.344;16.790;2023-08-21T11:44:30;101268.41;;;28.95;53.57
28701;BME280;15877;52.344;16.790;2023-08-21T11:47:02;101265.97;;;29.15;51.11
28701;BME280;15877;52.344;16.790;2023-08-21T11:49:37;101262.18;;;29.22;51.75
28701;BME280;15877;52.344;16.790;2023-08-21T11:52:13;101263.41;;;29.27;50.76
28701;BME280;15877;52.344;16.790;2023-08-21T11:54:49;101259.86;;;29.21;51.16
28701;BME280;15877;52.344;16.790;2023-08-21T11:57:22;101258.29;;;29.17;52.17
28701;BME280;15877;52.344;16.790;2023-08-21T11:59:56;101260.73;;;29.17;53.57
28701;BME280;15877;52.344;16.790;2023-08-21T12:02:29;101261.06;;;29.17;51.52
28701;BME280;15877;52.344;16.790;2023-08-21T12:05:05;101259.20;;;29.21;51.39
28701;BME280;15877;52.344;16.790;2023-08-21T12:07:38;101261.54;;;29.07;52.23
28701;BME280;15877;52.344;16.790;2023-08-21T12:10:11;101259.22;;;29.00;52.84
28701;BME280;15877;52.344;16.790;2023-08-21T12:12:43;101258.10;;;28.99;53.06
28701;BME280;15877;52.344;16.790;2023-08-21T12:15:16;101253.13;;;28.95;53.49
28701;BME280;15877;52.344;16.790;2023-08-21T12:17:48;101244.18;;;28.82;53.16
28701;BME280;15877;52.344;16.790;2023-08-21T12:20:21;101252.08;;;28.93;51.91
28701;BME280;15877;52.344;16.790;2023-08-21T12:22:53;101256.02;;;28.88;53.16
28701;BME280;15877;52.344;16.790;2023-08-21T12:25:25;101255.38;;;28.86;52.21
28701;BME280;15877;52.344;16.790;2023-08-21T12:27:58;101255.84;;;28.72;53.53
28701;BME280;15877;52.344;16.790;2023-08-21T12:30:39;101252.45;;;28.61;55.20
28701;BME280;15877;52.344;16.790;2023-08-21T12:33:12;101246.86;;;28.66;55.53
28701;BME280;15877;52.344;16.790;2023-08-21T12:35:54;101253.91;;;28.48;56.20
28701;BME280;15877;52.344;16.790;2023-08-21T12:38:27;101250.65;;;28.63;54.89
28701;BME280;15877;52.344;16.790;2023-08-21T12:41:00;101240.83;;;28.51;54.80
28701;BME280;15877;52.344;16.790;2023-08-21T12:43:33;101248.09;;;28.66;54.85
28701;BME280;15877;52.344;16.790;2023-08-21T12:46:05;101243.52;;;28.57;54.88
28701;BME280;15877;52.344;16.790;2023-08-21T12:48:38;101242.91;;;28.26;56.03
28701;BME280;15877;52.344;16.790;2023-08-21T12:51:11;101244.61;;;28.31;56.31
28701;BME280;15877;52.344;16.790;2023-08-21T12:53:43;101245.61;;;28.39;54.87
28701;BME280;15877;52.344;16.790;2023-08-21T12:56:16;101243.05;;;28.21;56.18
28701;BME280;15877;52.344;16.790;2023-08-21T12:58:48;101246.88;;;28.12;55.67
28701;BME280;15877;52.344;16.790;2023-08-21T13:01:21;101243.60;;;28.14;55.92
28701;BME280;15877;52.344;16.790;2023-08-21T13:03:53;101247.23;;;28.00;56.77
28701;BME280;15877;52.344;16.790;2023-08-21T13:06:26;101243.88;;;27.89;55.98
28701;BME280;15877;52.344;16.790;2023-08-21T13:08:59;101242.53;;;27.97;57.59
28701;BME280;15877;52.344;16.790;2023-08-21T13:11:35;101243.33;;;27.89;57.01